LavenderCAM.net
Leatherhead Weather
 
 





Member of StrikeStar EU

Aviation weather for

London Heathrow (EGLL) and London Gatwick (EGKK)



London Heathrow (EGLL) METAR / Surface Actual
London / Heathrow Airport, United Kingdom (EGLL) 51-29N 000-27W 0M
Dec 11, 2017 - 06:20 AM EST / 2017.12.11 1120 UTC
Wind: from the N (010 degrees) at 12 MPH (10 KT):0
Visibility: 4 mile(s):0
Sky conditions: overcast
Weather: light rain
Temperature: 35 F (2 C)
Windchill: 26 F (-3 C):1
Dew Point: 33 F (1 C)
Relative Humidity: 93%
Pressure (altimeter): 29.00 in. Hg (0982 hPa)
ob: EGLL 111120Z AUTO 01010KT 7000 -RA BKN008 OVC019 02/01 Q0982
cycle: 11
London Heathrow (EGLL) TAF / Forecast
2017/12/11 06:57
TAF 
      AMD TAF 
      AMD EGLL 110555Z 1106/1212 03012KT 9999 BKN025 
      TEMPO 1106/1116 02015G28KT 4000 -RASN BKN006 PROB30 
      TEMPO 1106/1116 1200 SN BKN003 
      BECMG 1113/1116 33015KT FEW030 
      BECMG 1203/1206 24004KT PROB30 
      TEMPO 1203/1209 6000


London Gatwick (EGKK) METAR / Surface Actual
London / Gatwick Airport, United Kingdom (EGKK) 51-09N 000-11W 0M
Dec 11, 2017 - 06:20 AM EST / 2017.12.11 1120 UTC
Wind: from the N (010 degrees) at 16 MPH (14 KT):0
Visibility: 4 mile(s):0
Sky conditions: mostly cloudy
Weather: light rain
Temperature: 35 F (2 C)
Windchill: 24 F (-4 C):1
Dew Point: 33 F (1 C)
Relative Humidity: 93%
Pressure (altimeter): 28.91 in. Hg (0979 hPa)
ob: EGKK 111120Z 01014KT 8000 -RA SCT009 BKN016 02/01 Q0979
cycle: 11
London Gatwick (EGKK) TAF / Forecast
2017/12/11 06:31
TAF 
      AMD EGKK 110611Z 1106/1212 04015KT 7000 -RA BKN006 
      TEMPO 1106/1107 4000 RA 
      TEMPO 1107/1118 2000 RASN BKN004 PROB30 
      TEMPO 1109/1116 1000 SN PROB40 
      TEMPO 1110/1118 03020G30KT 
      BECMG 1116/1119 31008KT 9999 NSW FEW020